createdAt,value
2019-02-06T00:00:00.540Z,1023.73
2019-02-06T00:01:00.451Z,1023.75
2019-02-06T00:02:00.377Z,1023.78
2019-02-06T00:03:00.287Z,1023.77
2019-02-06T00:04:00.187Z,1023.79
2019-02-06T00:05:00.340Z,1023.80
2019-02-06T00:06:00.008Z,1023.83
2019-02-06T00:06:59.923Z,1023.82
2019-02-06T00:07:59.853Z,1023.78
2019-02-06T00:08:59.746Z,1023.84
2019-02-06T00:09:59.662Z,1023.84
2019-02-06T00:10:59.610Z,1023.83
2019-02-06T00:11:59.488Z,1023.86
2019-02-06T00:12:59.457Z,1023.84
2019-02-06T00:13:59.313Z,1023.85
2019-02-06T00:14:59.223Z,1023.82
2019-02-06T00:15:59.130Z,1023.83
2019-02-06T00:16:59.066Z,1023.81
2019-02-06T00:17:58.995Z,1023.83
2019-02-06T00:18:58.878Z,1023.81
2019-02-06T00:19:58.783Z,1023.81
2019-02-06T00:20:58.691Z,1023.82
2019-02-06T00:21:58.603Z,1023.82
2019-02-06T00:22:58.534Z,1023.81
2019-02-06T00:23:58.432Z,1023.81
2019-02-06T00:24:58.345Z,1023.79
2019-02-06T00:25:58.251Z,1023.79
2019-02-06T00:26:58.162Z,1023.82
2019-02-06T00:27:58.098Z,1023.82
2019-02-06T00:28:57.987Z,1023.78
2019-02-06T00:29:57.898Z,1023.77
2019-02-06T00:30:57.814Z,1023.78
2019-02-06T00:31:57.722Z,1023.76
2019-02-06T00:32:57.645Z,1023.75
2019-02-06T00:33:57.549Z,1023.78
2019-02-06T00:34:57.464Z,1023.76
2019-02-06T00:35:57.378Z,1023.72
2019-02-06T00:36:57.286Z,1023.70
2019-02-06T00:37:57.212Z,1023.69
2019-02-06T00:38:57.105Z,1023.67
2019-02-06T00:39:57.025Z,1023.59
2019-02-06T00:40:56.930Z,1023.64
2019-02-06T00:41:56.847Z,1023.58
2019-02-06T00:42:56.774Z,1023.65
2019-02-06T00:43:56.672Z,1023.60
2019-02-06T00:44:56.577Z,1023.66
2019-02-06T00:45:56.495Z,1023.62
2019-02-06T00:46:56.399Z,1023.65
2019-02-06T00:47:56.325Z,1023.60
2019-02-06T00:48:56.233Z,1023.61
2019-02-06T00:49:56.140Z,1023.59
2019-02-06T00:50:56.051Z,1023.62
2019-02-06T00:51:55.969Z,1023.62
2019-02-06T00:52:55.884Z,1023.63
2019-02-06T00:53:55.783Z,1023.64
2019-02-06T00:54:56.699Z,1023.61
2019-02-06T00:55:55.607Z,1023.59
2019-02-06T00:56:55.523Z,1023.59
2019-02-06T00:57:55.461Z,1023.64
2019-02-06T00:58:55.348Z,1023.61
2019-02-06T00:59:58.296Z,1023.64
2019-02-06T01:00:55.176Z,1023.61
2019-02-06T01:01:55.080Z,1023.60
2019-02-06T01:02:55.006Z,1023.67
2019-02-06T01:03:54.908Z,1023.66
2019-02-06T01:04:54.813Z,1023.63
2019-02-06T01:05:54.728Z,1023.62
2019-02-06T01:06:54.644Z,1023.60
2019-02-06T01:07:54.574Z,1023.62
2019-02-06T01:08:54.463Z,1023.58
2019-02-06T01:09:54.378Z,1023.59
2019-02-06T01:10:54.291Z,1023.54
2019-02-06T01:11:54.197Z,1023.45
2019-02-06T01:12:54.129Z,1023.51
2019-02-06T01:13:54.021Z,1023.52
2019-02-06T01:14:53.937Z,1023.44
2019-02-06T01:15:53.865Z,1023.40
2019-02-06T01:16:53.754Z,1023.48
2019-02-06T01:17:53.703Z,1023.38
2019-02-06T01:18:53.585Z,1023.40
2019-02-06T01:19:53.492Z,1023.42
2019-02-06T01:20:53.415Z,1023.38
2019-02-06T01:21:53.322Z,1023.43
2019-02-06T01:22:53.228Z,1023.44
2019-02-06T01:23:53.160Z,1023.45
2019-02-06T01:24:53.056Z,1023.51
2019-02-06T01:25:52.971Z,1023.50
2019-02-06T01:26:52.875Z,1023.47
2019-02-06T01:27:52.797Z,1023.47
2019-02-06T01:28:52.751Z,1023.46
2019-02-06T01:29:52.619Z,1023.43
2019-02-06T01:30:52.525Z,1023.48
2019-02-06T01:31:52.440Z,1023.41
2019-02-06T01:32:52.345Z,1023.43
2019-02-06T01:33:52.276Z,1023.43
2019-02-06T01:34:52.181Z,1023.45
2019-02-06T01:35:52.083Z,1023.48
2019-02-06T01:36:51.994Z,1023.50
2019-02-06T01:37:51.911Z,1023.53
2019-02-06T01:38:51.828Z,1023.51
2019-02-06T01:39:51.735Z,1023.50
2019-02-06T01:40:51.640Z,1023.53
2019-02-06T01:41:51.558Z,1023.50
2019-02-06T01:42:51.467Z,1023.46
2019-02-06T01:43:51.393Z,1023.45
2019-02-06T01:44:51.288Z,1023.44
2019-02-06T01:45:51.207Z,1023.43
2019-02-06T01:46:51.111Z,1023.37
2019-02-06T01:47:51.026Z,1023.43
2019-02-06T01:48:50.951Z,1023.45
2019-02-06T01:49:50.855Z,1023.47
2019-02-06T01:50:50.759Z,1023.42
2019-02-06T01:51:50.676Z,1023.38
2019-02-06T01:52:50.582Z,1023.44
2019-02-06T01:53:50.517Z,1023.44
2019-02-06T01:54:50.405Z,1023.38
2019-02-06T01:55:50.325Z,1023.39
2019-02-06T01:56:50.230Z,1023.34
2019-02-06T01:57:50.178Z,1023.34
2019-02-06T01:58:50.073Z,1023.34
2019-02-06T01:59:49.964Z,1023.35
2019-02-06T02:00:49.876Z,1023.36
2019-02-06T02:01:49.797Z,1023.36
2019-02-06T02:02:49.700Z,1023.32
2019-02-06T02:03:49.627Z,1023.29
2019-02-06T02:04:49.529Z,1023.29
2019-02-06T02:06:01.397Z,1023.30
2019-02-06T02:06:49.352Z,1023.33
2019-02-06T02:07:49.258Z,1023.27
2019-02-06T02:08:49.185Z,1023.30
2019-02-06T02:09:49.088Z,1023.29
2019-02-06T02:10:48.995Z,1023.31
2019-02-06T02:11:48.924Z,1023.32
2019-02-06T02:12:48.829Z,1023.26
2019-02-06T02:13:48.741Z,1023.25
2019-02-06T02:14:48.646Z,1023.20
2019-02-06T02:15:48.562Z,1023.19
2019-02-06T02:16:48.468Z,1023.22
2019-02-06T02:17:48.377Z,1023.16
2019-02-06T02:18:48.308Z,1023.13
2019-02-06T02:19:48.200Z,1023.12
2019-02-06T02:20:48.111Z,1023.07
2019-02-06T02:21:48.032Z,1023.04
2019-02-06T02:22:47.937Z,1023.06
2019-02-06T02:23:47.864Z,1023.06
2019-02-06T02:24:47.761Z,1023.10
2019-02-06T02:25:47.668Z,1023.04
2019-02-06T02:26:47.586Z,1022.97
2019-02-06T02:27:47.503Z,1022.97
2019-02-06T02:28:47.444Z,1022.93
2019-02-06T02:29:47.324Z,1022.92
2019-02-06T02:30:47.228Z,1022.90
2019-02-06T02:31:47.141Z,1022.89
2019-02-06T02:32:47.060Z,1022.87
2019-02-06T02:33:46.997Z,1022.82
2019-02-06T02:34:46.881Z,1022.84
2019-02-06T02:35:46.799Z,1022.84
2019-02-06T02:36:46.700Z,1022.84
2019-02-06T02:37:46.614Z,1022.80
2019-02-06T02:38:46.527Z,1022.76
2019-02-06T02:39:46.457Z,1022.72
2019-02-06T02:40:46.356Z,1022.66
2019-02-06T02:41:46.294Z,1022.61
2019-02-06T02:42:46.172Z,1022.63
2019-02-06T02:43:46.088Z,1022.60
2019-02-06T02:44:46.010Z,1022.63
2019-02-06T02:45:45.914Z,1022.56
2019-02-06T02:46:45.821Z,1022.61
2019-02-06T02:47:45.744Z,1022.59
2019-02-06T02:48:45.649Z,1022.61
2019-02-06T02:49:45.568Z,1022.63
2019-02-06T02:50:45.472Z,1022.59
2019-02-06T02:51:45.380Z,1022.59
2019-02-06T02:52:45.300Z,1022.54
2019-02-06T02:53:45.211Z,1022.49
2019-02-06T02:54:45.133Z,1022.55
2019-02-06T02:55:45.034Z,1022.51
2019-02-06T02:56:44.946Z,1022.54
2019-02-06T02:57:44.856Z,1022.52
2019-02-06T02:58:44.761Z,1022.48
2019-02-06T02:59:44.693Z,1022.49
2019-02-06T03:00:44.586Z,1022.46
2019-02-06T03:01:44.507Z,1022.49
2019-02-06T03:02:44.410Z,1022.45
2019-02-06T03:03:44.322Z,1022.41
2019-02-06T03:04:44.253Z,1022.45
2019-02-06T03:05:44.145Z,1022.42
2019-02-06T03:06:44.061Z,1022.41
2019-02-06T03:07:43.980Z,1022.43
2019-02-06T03:08:43.884Z,1022.42
2019-02-06T03:09:43.807Z,1022.40
2019-02-06T03:10:43.709Z,1022.40
2019-02-06T03:11:43.619Z,1022.38
2019-02-06T03:12:43.533Z,1022.33
2019-02-06T03:13:43.443Z,1022.39
2019-02-06T03:14:43.380Z,1022.27
2019-02-06T03:15:43.268Z,1022.29
2019-02-06T03:16:43.185Z,1022.30
2019-02-06T03:17:43.089Z,1022.26
2019-02-06T03:18:43.000Z,1022.25
2019-02-06T03:19:42.931Z,1022.22
2019-02-06T03:20:42.825Z,1022.20
2019-02-06T03:21:42.736Z,1022.20
2019-02-06T03:22:42.654Z,1022.20
2019-02-06T03:23:42.560Z,1022.11
2019-02-06T03:24:42.484Z,1022.12
2019-02-06T03:25:42.393Z,1022.18
2019-02-06T03:26:42.311Z,1022.20
2019-02-06T03:27:42.216Z,1022.11
2019-02-06T03:28:42.129Z,1022.10
2019-02-06T03:29:42.045Z,1022.10
2019-02-06T03:30:41.953Z,1022.06
2019-02-06T03:31:41.855Z,1022.03
2019-02-06T03:32:41.798Z,1022.05
2019-02-06T03:33:41.695Z,1021.99
2019-02-06T03:34:41.623Z,1022.07
2019-02-06T03:35:41.512Z,1022.09
2019-02-06T03:36:41.418Z,1022.07
2019-02-06T03:37:41.334Z,1022.10
2019-02-06T03:38:41.249Z,1022.06
2019-02-06T03:39:41.159Z,1022.06
2019-02-06T03:40:41.085Z,1022.11
2019-02-06T03:41:40.988Z,1022.16
2019-02-06T03:42:40.891Z,1022.15
2019-02-06T03:43:40.805Z,1022.11
2019-02-06T03:44:40.713Z,1022.08
2019-02-06T03:45:40.646Z,1022.13
2019-02-06T03:46:40.539Z,1022.19
2019-02-06T03:47:40.455Z,1022.14
2019-02-06T03:48:40.361Z,1022.16
2019-02-06T03:49:42.696Z,1022.10
2019-02-06T03:50:40.217Z,1022.05
2019-02-06T03:51:40.100Z,1022.05
2019-02-06T03:52:40.009Z,1021.99
2019-02-06T03:53:39.926Z,1022.08
2019-02-06T03:54:39.831Z,1022.07
2019-02-06T03:55:39.764Z,1022.06
2019-02-06T03:56:39.661Z,1022.02
2019-02-06T03:57:39.584Z,1022.01
2019-02-06T03:58:39.478Z,1022.03
2019-02-06T03:59:39.396Z,1022.05
2019-02-06T04:00:39.318Z,1021.99
2019-02-06T04:01:39.232Z,1021.97
2019-02-06T04:02:39.127Z,1021.95
2019-02-06T04:03:39.044Z,1022.02
2019-02-06T04:04:38.963Z,1021.97
2019-02-06T04:05:38.876Z,1021.98
2019-02-06T04:06:38.788Z,1021.96
2019-02-06T04:07:38.690Z,1021.95
2019-02-06T04:08:38.600Z,1022.00
2019-02-06T04:09:38.518Z,1022.00
2019-02-06T04:10:38.437Z,1021.99
2019-02-06T04:11:38.340Z,1021.94
2019-02-06T04:12:38.249Z,1021.93
2019-02-06T04:13:38.169Z,1021.95
2019-02-06T04:14:38.077Z,1021.90
2019-02-06T04:15:38.004Z,1021.91
2019-02-06T04:16:37.897Z,1021.83
2019-02-06T04:17:38.035Z,1021.86
2019-02-06T04:18:37.719Z,1021.87
2019-02-06T04:19:37.638Z,1021.87
2019-02-06T04:20:37.564Z,1021.84
2019-02-06T04:21:37.462Z,1021.83
2019-02-06T04:22:37.367Z,1021.84
2019-02-06T04:23:37.288Z,1021.88
2019-02-06T04:24:37.192Z,1021.87
2019-02-06T04:25:37.120Z,1021.85
2019-02-06T04:26:37.034Z,1021.87
2019-02-06T04:27:36.929Z,1021.87
2019-02-06T04:28:36.841Z,1021.84
2019-02-06T04:29:36.759Z,1021.83
2019-02-06T04:30:36.677Z,1021.88
2019-02-06T04:31:36.586Z,1021.81
2019-02-06T04:32:36.490Z,1021.80
2019-02-06T04:33:36.406Z,1021.80
2019-02-06T04:34:36.315Z,1021.79
2019-02-06T04:35:36.245Z,1021.75
2019-02-06T04:36:36.135Z,1021.78
2019-02-06T04:37:36.079Z,1021.75
2019-02-06T04:38:35.963Z,1021.78
2019-02-06T04:39:35.875Z,1021.77
2019-02-06T04:40:35.804Z,1021.70
2019-02-06T04:41:35.695Z,1021.70
2019-02-06T04:42:35.610Z,1021.71
2019-02-06T04:43:35.528Z,1021.61
2019-02-06T04:44:35.431Z,1021.61
2019-02-06T04:45:35.370Z,1021.62
2019-02-06T04:46:35.269Z,1021.59
2019-02-06T04:47:35.168Z,1021.62
2019-02-06T04:48:35.081Z,1021.58
2019-02-06T04:49:34.987Z,1021.56
2019-02-06T04:50:34.923Z,1021.55
2019-02-06T04:51:34.818Z,1021.55
2019-02-06T04:52:34.739Z,1021.57
2019-02-06T04:53:34.638Z,1021.57
2019-02-06T04:54:34.558Z,1021.60
2019-02-06T04:55:34.487Z,1021.58
2019-02-06T04:56:34.379Z,1021.57
2019-02-06T04:57:34.295Z,1021.55
2019-02-06T04:58:34.197Z,1021.57
2019-02-06T04:59:34.114Z,1021.53
2019-02-06T05:00:34.044Z,1021.57
2019-02-06T05:01:33.934Z,1021.56
2019-02-06T05:02:33.872Z,1021.52
2019-02-06T05:03:33.762Z,1021.54
2019-02-06T05:04:33.671Z,1021.56
2019-02-06T05:05:33.604Z,1021.59
2019-02-06T05:06:33.615Z,1021.57
2019-02-06T05:07:33.407Z,1021.56
2019-02-06T05:08:33.424Z,1021.56
2019-02-06T05:09:33.230Z,1021.53
2019-02-06T05:10:33.266Z,1021.50
2019-02-06T05:11:33.057Z,1021.53
2019-02-06T05:12:33.041Z,1021.51
2019-02-06T05:13:32.876Z,1021.59
2019-02-06T05:14:32.850Z,1021.51
2019-02-06T05:15:32.704Z,1021.52
2019-02-06T05:16:32.688Z,1021.49
2019-02-06T05:17:32.523Z,1021.49
2019-02-06T05:18:32.472Z,1021.45
2019-02-06T05:19:32.358Z,1021.45
2019-02-06T05:20:32.274Z,1021.46
2019-02-06T05:21:32.191Z,1021.38
2019-02-06T05:22:32.306Z,1021.35
2019-02-06T05:23:31.998Z,1021.40
2019-02-06T05:24:32.096Z,1021.35
2019-02-06T05:25:31.823Z,1021.34
2019-02-06T05:26:31.940Z,1021.28
2019-02-06T05:27:31.652Z,1021.27
2019-02-06T05:28:31.724Z,1021.24
2019-02-06T05:29:31.472Z,1021.22
2019-02-06T05:30:31.521Z,1021.23
2019-02-06T05:31:31.424Z,1021.21
2019-02-06T05:32:31.330Z,1021.18
2019-02-06T05:33:31.121Z,1021.20
2019-02-06T05:34:31.139Z,1021.17
2019-02-06T05:35:30.942Z,1021.14
2019-02-06T05:36:30.978Z,1021.07
2019-02-06T05:37:32.357Z,1021.00
2019-02-06T05:38:30.770Z,1021.09
2019-02-06T05:39:30.593Z,1021.14
2019-02-06T05:40:30.564Z,1021.13
2019-02-06T05:41:30.430Z,1021.18
2019-02-06T05:42:30.363Z,1021.16
2019-02-06T05:43:30.380Z,1021.15
2019-02-06T05:44:30.150Z,1021.17
2019-02-06T05:45:30.067Z,1021.13
2019-02-06T05:46:30.025Z,1021.15
2019-02-06T05:47:29.890Z,1021.15
2019-02-06T05:48:29.803Z,1021.06
2019-02-06T05:49:29.717Z,1021.07
2019-02-06T05:50:29.624Z,1021.02
2019-02-06T05:51:29.549Z,1021.06
2019-02-06T05:52:29.457Z,1021.01
2019-02-06T05:53:29.363Z,1021.00
2019-02-06T05:54:29.274Z,1021.04
2019-02-06T05:55:29.187Z,1021.04
2019-02-06T05:56:29.110Z,1021.05
2019-02-06T05:57:29.009Z,1021.03
2019-02-06T05:58:28.927Z,1021.07
2019-02-06T05:59:28.882Z,1021.06
2019-02-06T06:00:28.749Z,1021.06
2019-02-06T06:01:28.676Z,1021.09
2019-02-06T06:02:28.567Z,1021.03
2019-02-06T06:03:28.480Z,1021.04
2019-02-06T06:04:28.405Z,1021.00
2019-02-06T06:05:28.306Z,1021.06
2019-02-06T06:06:28.226Z,1021.11
2019-02-06T06:07:28.143Z,1021.12
2019-02-06T06:08:28.050Z,1021.07
2019-02-06T06:09:27.953Z,1021.08
2019-02-06T06:10:27.871Z,1021.09
2019-02-06T06:11:27.793Z,1021.09
2019-02-06T06:12:27.691Z,1021.10
2019-02-06T06:13:27.621Z,1021.05
2019-02-06T06:14:27.512Z,1021.02
2019-02-06T06:15:27.422Z,1021.10
2019-02-06T06:16:27.360Z,1021.07
2019-02-06T06:17:27.254Z,1021.09
2019-02-06T06:18:27.162Z,1021.03
2019-02-06T06:19:27.084Z,1021.02
2019-02-06T06:20:26.984Z,1021.04
2019-02-06T06:21:26.914Z,1021.03
2019-02-06T06:22:26.813Z,1020.98
2019-02-06T06:23:26.718Z,1020.91
2019-02-06T06:24:26.636Z,1020.93
2019-02-06T06:25:26.557Z,1020.91
2019-02-06T06:26:26.471Z,1020.90
2019-02-06T06:27:26.369Z,1020.92
2019-02-06T06:28:26.290Z,1020.89
2019-02-06T06:29:26.193Z,1020.92
2019-02-06T06:30:26.110Z,1020.88
2019-02-06T06:31:26.047Z,1020.89
2019-02-06T06:32:25.943Z,1020.87
2019-02-06T06:33:25.849Z,1020.84
2019-02-06T06:34:25.761Z,1020.93
2019-02-06T06:35:25.677Z,1020.87
2019-02-06T06:36:25.583Z,1020.82
2019-02-06T06:37:25.501Z,1020.88
2019-02-06T06:38:25.407Z,1020.77
2019-02-06T06:39:25.314Z,1020.75
2019-02-06T06:40:25.229Z,1020.75
2019-02-06T06:41:25.135Z,1020.81
2019-02-06T06:42:25.065Z,1020.76
2019-02-06T06:43:24.970Z,1020.78
2019-02-06T06:44:24.943Z,1020.79
2019-02-06T06:45:24.782Z,1020.75
2019-02-06T06:46:24.700Z,1020.76
2019-02-06T06:47:24.623Z,1020.70
2019-02-06T06:48:24.525Z,1020.70
2019-02-06T06:49:24.439Z,1020.72
2019-02-06T06:50:24.353Z,1020.67
2019-02-06T06:51:24.256Z,1020.67
2019-02-06T06:52:24.190Z,1020.71
2019-02-06T06:53:24.080Z,1020.58
2019-02-06T06:54:23.991Z,1020.72
2019-02-06T06:55:23.908Z,1020.74
2019-02-06T06:56:23.816Z,1020.66
2019-02-06T06:57:23.741Z,1020.68
2019-02-06T06:58:23.645Z,1020.68
2019-02-06T06:59:23.553Z,1020.64
2019-02-06T07:00:24.802Z,1020.60
2019-02-06T07:01:23.387Z,1020.66
2019-02-06T07:02:23.305Z,1020.69
2019-02-06T07:03:23.201Z,1020.68
2019-02-06T07:04:23.120Z,1020.74
2019-02-06T07:05:23.024Z,1020.69
2019-02-06T07:06:22.938Z,1020.72
2019-02-06T07:07:22.868Z,1020.61
2019-02-06T07:08:22.775Z,1020.64
2019-02-06T07:09:22.674Z,1020.68
2019-02-06T07:10:22.594Z,1020.68
2019-02-06T07:11:22.501Z,1020.66
2019-02-06T07:12:22.434Z,1020.67
2019-02-06T07:13:22.329Z,1020.75
2019-02-06T07:14:22.236Z,1020.68
2019-02-06T07:15:22.149Z,1020.66
2019-02-06T07:16:22.065Z,1020.62
2019-02-06T07:17:21.991Z,1020.58
2019-02-06T07:18:21.884Z,1020.56
2019-02-06T07:19:21.801Z,1020.60
2019-02-06T07:20:21.708Z,1020.56
2019-02-06T07:21:21.625Z,1020.61
2019-02-06T07:22:21.556Z,1020.57
2019-02-06T07:23:21.448Z,1020.54
2019-02-06T07:24:21.371Z,1020.59
2019-02-06T07:25:21.278Z,1020.57
2019-02-06T07:26:21.225Z,1020.55
2019-02-06T07:27:21.212Z,1020.53
2019-02-06T07:28:21.021Z,1020.62
2019-02-06T07:29:20.921Z,1020.60
2019-02-06T07:30:20.837Z,1020.67
2019-02-06T07:31:20.752Z,1020.65
2019-02-06T07:32:20.674Z,1020.67
2019-02-06T07:33:20.579Z,1020.72
2019-02-06T07:34:20.492Z,1020.75
2019-02-06T07:35:20.397Z,1020.76
2019-02-06T07:36:20.308Z,1020.76
2019-02-06T07:37:20.239Z,1020.77
2019-02-06T07:38:24.268Z,1020.81
2019-02-06T07:39:20.046Z,1020.77
2019-02-06T07:40:19.992Z,1020.85
2019-02-06T07:41:19.872Z,1020.84
2019-02-06T07:42:19.801Z,1020.86
2019-02-06T07:43:19.713Z,1020.87
2019-02-06T07:44:19.611Z,1020.84
2019-02-06T07:45:19.523Z,1020.87
2019-02-06T07:46:19.444Z,1020.86
2019-02-06T07:47:19.361Z,1020.80
2019-02-06T07:48:19.260Z,1020.80
2019-02-06T07:49:19.187Z,1020.81
2019-02-06T07:50:19.087Z,1020.82
2019-02-06T07:51:19.000Z,1020.83
2019-02-06T07:52:19.032Z,1020.83
2019-02-06T07:53:18.833Z,1020.84
2019-02-06T07:54:18.747Z,1020.86
2019-02-06T07:55:18.654Z,1020.79
2019-02-06T07:56:18.571Z,1020.85
2019-02-06T07:57:18.476Z,1020.86
2019-02-06T07:58:18.406Z,1020.87
2019-02-06T07:59:18.311Z,1020.85
2019-02-06T08:00:18.218Z,1020.89
2019-02-06T08:01:18.131Z,1020.83
2019-02-06T08:02:18.044Z,1020.89
2019-02-06T08:03:17.999Z,1020.87
2019-02-06T08:04:17.870Z,1020.94
2019-02-06T08:05:17.789Z,1020.93
2019-02-06T08:06:17.708Z,1020.94
2019-02-06T08:07:17.617Z,1020.89
2019-02-06T08:08:17.536Z,1020.90
2019-02-06T08:09:17.434Z,1020.87
2019-02-06T08:10:17.354Z,1020.88
2019-02-06T08:11:17.262Z,1020.87
2019-02-06T08:12:17.180Z,1020.88
2019-02-06T08:13:17.107Z,1020.85
2019-02-06T08:14:17.004Z,1020.84
2019-02-06T08:15:16.919Z,1020.88
2019-02-06T08:16:16.839Z,1020.89
2019-02-06T08:17:16.749Z,1020.91
2019-02-06T08:18:16.679Z,1020.96
2019-02-06T08:19:16.579Z,1020.89
2019-02-06T08:20:16.488Z,1020.83
2019-02-06T08:21:16.403Z,1020.94
2019-02-06T08:22:16.322Z,1020.87
2019-02-06T08:23:16.246Z,1020.84
2019-02-06T08:24:16.140Z,1020.89
2019-02-06T08:25:16.060Z,1020.93
2019-02-06T08:26:15.965Z,1020.89
2019-02-06T08:27:15.899Z,1020.90
2019-02-06T08:28:15.811Z,1020.85
2019-02-06T08:29:15.712Z,1020.91
2019-02-06T08:30:15.627Z,1020.90
2019-02-06T08:31:15.535Z,1020.89
2019-02-06T08:32:15.452Z,1020.90
2019-02-06T08:33:15.407Z,1020.96
2019-02-06T08:34:15.276Z,1020.92
2019-02-06T08:35:15.196Z,1020.93
2019-02-06T08:36:15.107Z,1020.93
2019-02-06T08:37:15.025Z,1020.92
2019-02-06T08:38:14.951Z,1020.99
2019-02-06T08:39:14.857Z,1021.03
2019-02-06T08:40:14.770Z,1020.99
2019-02-06T08:41:14.679Z,1021.01
2019-02-06T08:42:14.591Z,1021.02
2019-02-06T08:43:14.524Z,1021.03
2019-02-06T08:44:14.432Z,1021.06
2019-02-06T08:45:14.339Z,1021.08
2019-02-06T08:46:14.246Z,1021.09
2019-02-06T08:47:14.167Z,1021.09
2019-02-06T08:48:14.089Z,1021.14
2019-02-06T08:49:13.986Z,1021.12
2019-02-06T08:50:13.922Z,1021.18
2019-02-06T08:51:13.816Z,1021.15
2019-02-06T08:52:13.741Z,1021.13
2019-02-06T08:53:13.665Z,1021.15
2019-02-06T08:54:13.558Z,1021.17
2019-02-06T08:55:13.477Z,1021.11
2019-02-06T08:56:13.389Z,1021.13
2019-02-06T08:57:13.305Z,1021.16
2019-02-06T08:58:13.234Z,1021.12
2019-02-06T08:59:13.131Z,1021.12
2019-02-06T09:00:13.053Z,1021.13
2019-02-06T09:01:12.968Z,1021.08
2019-02-06T09:02:12.871Z,1021.09
2019-02-06T09:03:12.806Z,1021.12
2019-02-06T09:04:12.703Z,1021.12
2019-02-06T09:05:12.614Z,1021.14
2019-02-06T09:06:12.536Z,1021.15
2019-02-06T09:07:12.445Z,1021.19
2019-02-06T09:08:12.373Z,1021.14
2019-02-06T09:09:12.303Z,1021.15
2019-02-06T09:10:13.415Z,1021.20
2019-02-06T09:11:12.109Z,1021.14
2019-02-06T09:12:12.019Z,1021.17
2019-02-06T09:13:11.981Z,1021.23
2019-02-06T09:14:11.848Z,1021.26
2019-02-06T09:15:11.770Z,1021.25
2019-02-06T09:16:11.676Z,1021.33
2019-02-06T09:17:11.599Z,1021.23
2019-02-06T09:18:11.508Z,1021.28
2019-02-06T09:19:11.447Z,1021.29
2019-02-06T09:20:11.337Z,1021.32
2019-02-06T09:21:11.256Z,1021.33
2019-02-06T09:22:11.166Z,1021.37
2019-02-06T09:23:11.082Z,1021.41
2019-02-06T09:24:11.017Z,1021.33
2019-02-06T09:25:10.913Z,1021.46
2019-02-06T09:26:10.825Z,1021.45
2019-02-06T09:27:10.748Z,1021.42
2019-02-06T09:28:10.658Z,1021.42
2019-02-06T09:29:10.583Z,1021.44
2019-02-06T09:30:10.497Z,1021.48
2019-02-06T09:31:10.404Z,1021.47
2019-02-06T09:32:10.318Z,1021.40
2019-02-06T09:33:10.239Z,1021.50
2019-02-06T09:34:10.163Z,1021.45
2019-02-06T09:35:10.070Z,1021.46
2019-02-06T09:36:09.979Z,1021.50
2019-02-06T09:37:09.900Z,1021.48
2019-02-06T09:38:09.813Z,1021.52
2019-02-06T09:39:11.795Z,1021.50
2019-02-06T09:40:09.662Z,1021.51
2019-02-06T09:41:09.564Z,1021.47
2019-02-06T09:42:09.474Z,1021.51
2019-02-06T09:43:09.396Z,1021.57
2019-02-06T09:44:09.322Z,1021.50
2019-02-06T09:45:09.217Z,1021.51
2019-02-06T09:46:09.143Z,1021.49
2019-02-06T09:47:09.081Z,1021.51
2019-02-06T09:48:08.993Z,1021.55
2019-02-06T09:49:08.904Z,1021.57
2019-02-06T09:50:08.803Z,1021.57
2019-02-06T09:51:08.723Z,1021.64
2019-02-06T09:52:08.634Z,1021.59
2019-02-06T09:53:08.556Z,1021.57
2019-02-06T09:54:08.481Z,1021.63
2019-02-06T09:55:08.394Z,1021.58
2019-02-06T09:56:08.302Z,1021.64
2019-02-06T09:57:08.225Z,1021.60
2019-02-06T09:58:08.151Z,1021.65
2019-02-06T09:59:08.056Z,1021.68
2019-02-06T10:00:07.976Z,1021.64
2019-02-06T10:01:07.884Z,1021.69
2019-02-06T10:02:09.543Z,1021.63
2019-02-06T10:03:07.739Z,1021.63
2019-02-06T10:04:07.639Z,1021.59
2019-02-06T10:05:07.555Z,1021.60
2019-02-06T10:06:07.487Z,1021.57
2019-02-06T10:07:07.387Z,1021.61
2019-02-06T10:08:07.325Z,1021.57
2019-02-06T10:09:07.221Z,1021.56
2019-02-06T10:10:07.136Z,1021.56
2019-02-06T10:11:07.053Z,1021.62
2019-02-06T10:12:07.985Z,1021.67
2019-02-06T10:13:06.911Z,1021.68
2019-02-06T10:14:06.804Z,1021.58
2019-02-06T10:15:06.721Z,1021.61
2019-02-06T10:16:06.646Z,1021.58
2019-02-06T10:17:06.553Z,1021.62
2019-02-06T10:18:06.499Z,1021.55
2019-02-06T10:19:06.404Z,1021.56
2019-02-06T10:20:06.322Z,1021.54
2019-02-06T10:21:06.227Z,1021.54
2019-02-06T10:22:06.142Z,1021.52
2019-02-06T10:23:06.068Z,1021.54
2019-02-06T10:24:05.981Z,1021.44
2019-02-06T10:25:05.890Z,1021.55
2019-02-06T10:26:05.812Z,1021.53
2019-02-06T10:27:05.727Z,1021.46
2019-02-06T10:28:05.781Z,1021.40
2019-02-06T10:29:05.557Z,1021.39
2019-02-06T10:30:05.476Z,1021.44
2019-02-06T10:31:05.400Z,1021.43
2019-02-06T10:32:05.311Z,1021.44
2019-02-06T10:33:05.241Z,1021.46
2019-02-06T10:34:05.147Z,1021.45
2019-02-06T10:35:05.062Z,1021.47
2019-02-06T10:36:04.985Z,1021.44
2019-02-06T10:37:04.907Z,1021.43
2019-02-06T10:38:04.828Z,1021.41
2019-02-06T10:39:04.727Z,1021.39
2019-02-06T10:40:04.662Z,1021.40
2019-02-06T10:41:04.778Z,1021.39
2019-02-06T10:42:04.484Z,1021.36
2019-02-06T10:43:04.461Z,1021.34
2019-02-06T10:44:04.318Z,1021.37
2019-02-06T10:45:04.226Z,1021.32
2019-02-06T10:46:04.151Z,1021.32
2019-02-06T10:47:04.067Z,1021.32
2019-02-06T10:48:03.978Z,1021.34
2019-02-06T10:49:03.914Z,1021.32
2019-02-06T10:50:03.818Z,1021.33
2019-02-06T10:51:03.729Z,1021.30
2019-02-06T10:52:03.647Z,1021.33
2019-02-06T10:53:03.568Z,1021.31
2019-02-06T10:54:03.493Z,1021.27
2019-02-06T10:55:03.399Z,1021.35
2019-02-06T10:56:03.336Z,1021.26
2019-02-06T10:57:03.236Z,1021.27
2019-02-06T10:58:03.151Z,1021.25
2019-02-06T10:59:03.085Z,1021.16
2019-02-06T11:00:02.986Z,1021.18
2019-02-06T11:01:02.916Z,1021.15
2019-02-06T11:02:02.822Z,1021.12
2019-02-06T11:03:02.748Z,1021.16
2019-02-06T11:04:02.669Z,1021.08
2019-02-06T11:05:02.566Z,1021.07
2019-02-06T11:06:02.483Z,1021.05
2019-02-06T11:07:02.418Z,1021.05
2019-02-06T11:08:02.319Z,1021.01
2019-02-06T11:09:02.247Z,1021.00
2019-02-06T11:10:02.157Z,1020.98
2019-02-06T11:11:02.069Z,1021.04
2019-02-06T11:12:01.986Z,1020.99
2019-02-06T11:13:01.909Z,1020.96
2019-02-06T11:14:01.834Z,1020.92
2019-02-06T11:15:01.745Z,1021.00
2019-02-06T11:16:01.664Z,1020.87
2019-02-06T11:17:01.570Z,1020.88
2019-02-06T11:18:01.487Z,1020.87
2019-02-06T11:19:01.424Z,1020.84
2019-02-06T11:20:01.320Z,1020.83
2019-02-06T11:21:01.239Z,1020.79
2019-02-06T11:22:01.162Z,1020.78
2019-02-06T11:23:01.074Z,1020.70
2019-02-06T11:24:01.005Z,1020.71
2019-02-06T11:25:00.924Z,1020.69
2019-02-06T11:26:00.825Z,1020.71
2019-02-06T11:27:00.747Z,1020.73
2019-02-06T11:28:00.661Z,1020.81
2019-02-06T11:29:00.597Z,1020.71
2019-02-06T11:30:00.494Z,1020.75
2019-02-06T11:31:00.415Z,1020.81
2019-02-06T11:32:00.358Z,1020.79
2019-02-06T11:33:00.248Z,1020.81
2019-02-06T11:34:00.171Z,1020.76
2019-02-06T11:35:02.298Z,1020.58
2019-02-06T11:35:59.998Z,1020.64
2019-02-06T11:36:59.917Z,1020.62
2019-02-06T11:37:59.828Z,1020.56
2019-02-06T11:38:59.768Z,1020.53
2019-02-06T11:39:59.665Z,1020.53
2019-02-06T11:40:59.589Z,1020.55
2019-02-06T11:41:59.499Z,1020.52
2019-02-06T11:42:59.426Z,1020.52
2019-02-06T11:43:59.347Z,1020.52
2019-02-06T11:44:59.258Z,1020.53
2019-02-06T11:45:59.170Z,1020.56
2019-02-06T11:46:59.089Z,1020.54
2019-02-06T11:47:59.014Z,1020.56
2019-02-06T11:48:58.936Z,1020.55
2019-02-06T11:49:58.843Z,1020.51
2019-02-06T11:50:58.763Z,1020.46
2019-02-06T11:51:58.685Z,1020.45
2019-02-06T11:52:58.590Z,1020.48
2019-02-06T11:53:58.536Z,1020.37
2019-02-06T11:54:58.436Z,1020.43
2019-02-06T11:55:58.351Z,1020.39
2019-02-06T11:56:58.268Z,1020.34
2019-02-06T11:57:58.186Z,1020.27
2019-02-06T11:58:58.108Z,1020.31
2019-02-06T11:59:58.024Z,1020.26
2019-02-06T12:00:57.938Z,1020.27
2019-02-06T12:01:57.859Z,1020.22
2019-02-06T12:02:57.763Z,1020.20
2019-02-06T12:03:57.706Z,1020.18